createdAt,value
2022-10-27T00:00:40.932Z,101548.53
2022-10-27T00:03:13.560Z,101548.47
2022-10-27T00:05:42.066Z,101544.94
2022-10-27T00:08:08.592Z,101546.72
2022-10-27T00:10:35.122Z,101555.41
2022-10-27T00:13:01.595Z,101549.28
2022-10-27T00:15:28.063Z,101564.94
2022-10-27T00:17:54.538Z,101554.50
2022-10-27T00:20:21.059Z,101548.34
2022-10-27T00:22:47.710Z,101546.53
2022-10-27T00:25:14.449Z,101539.53
2022-10-27T00:27:40.897Z,101536.06
2022-10-27T00:30:08.049Z,101533.38
2022-10-27T00:32:34.612Z,101529.00
2022-10-27T00:35:01.098Z,101528.91
2022-10-27T00:37:28.910Z,101532.31
2022-10-27T00:39:55.470Z,101521.84
2022-10-27T00:42:21.924Z,101530.38
2022-10-27T00:44:48.664Z,101518.94
2022-10-27T00:47:24.555Z,101519.78
2022-10-27T00:49:54.938Z,101521.41
2022-10-27T00:52:34.064Z,101525.72
2022-10-27T00:55:18.659Z,101526.59
2022-10-27T00:57:48.705Z,101518.59
2022-10-27T01:00:15.881Z,101524.59
2022-10-27T01:02:42.529Z,101525.47
2022-10-27T01:05:28.494Z,101528.81
2022-10-27T01:07:57.785Z,101531.31
2022-10-27T01:10:25.242Z,101539.94
2022-10-27T01:12:52.850Z,101533.72
2022-10-27T01:15:22.892Z,101536.28
2022-10-27T01:18:08.681Z,101525.84
2022-10-27T01:21:14.037Z,101529.19
2022-10-27T01:23:52.491Z,101536.06
2022-10-27T01:26:30.974Z,101547.44
2022-10-27T01:29:28.376Z,101544.81
2022-10-27T01:32:05.500Z,101532.56
2022-10-27T01:34:47.581Z,101539.56
2022-10-27T01:37:30.272Z,101516.19
2022-10-27T01:40:02.103Z,101535.19
2022-10-27T01:42:36.206Z,101523.84
2022-10-27T01:45:03.993Z,101523.84
2022-10-27T01:47:32.036Z,101515.09
2022-10-27T01:49:58.470Z,101516.81
2022-10-27T01:52:37.086Z,101510.75
2022-10-27T01:55:04.371Z,101503.81
2022-10-27T01:57:47.527Z,101497.75
2022-10-27T02:00:14.331Z,101492.41
2022-10-27T02:02:46.578Z,101490.69
2022-10-27T02:05:26.559Z,101485.56
2022-10-27T02:08:34.497Z,101487.19
2022-10-27T02:11:06.965Z,101488.91
2022-10-27T02:13:36.827Z,101492.31
2022-10-27T02:16:06.837Z,101476.69
2022-10-27T02:18:38.578Z,101474.97
2022-10-27T02:21:08.762Z,101479.22
2022-10-27T02:23:36.408Z,101479.22
2022-10-27T02:26:19.262Z,101471.38
2022-10-27T02:29:03.457Z,101453.94
2022-10-27T02:31:36.494Z,101446.91
2022-10-27T02:34:04.527Z,101465.25
2022-10-27T02:36:31.721Z,101465.28
2022-10-27T02:38:58.241Z,101460.00
2022-10-27T02:41:24.944Z,101459.16
2022-10-27T02:43:51.422Z,101446.97
2022-10-27T02:46:17.972Z,101453.94
2022-10-27T02:48:44.438Z,101439.16
2022-10-27T02:51:11.749Z,101440.94
2022-10-27T02:53:38.206Z,101431.34
2022-10-27T02:56:04.992Z,101424.41
2022-10-27T02:58:31.535Z,101424.47
2022-10-27T03:00:58.083Z,101426.25
2022-10-27T03:03:24.671Z,101415.78
2022-10-27T03:05:51.769Z,101428.03
2022-10-27T03:08:18.500Z,101421.94
2022-10-27T03:10:45.328Z,101419.47
2022-10-27T03:13:12.129Z,101424.75
2022-10-27T03:15:38.736Z,101424.03
2022-10-27T03:18:05.322Z,101411.09
2022-10-27T03:20:31.802Z,101418.09
2022-10-27T03:22:58.289Z,101417.34
2022-10-27T03:25:24.790Z,101416.59
2022-10-27T03:27:51.243Z,101407.88
2022-10-27T03:30:17.834Z,101399.22
2022-10-27T03:32:52.249Z,101390.59
2022-10-27T03:35:20.917Z,101382.75
2022-10-27T03:37:55.549Z,101381.94
2022-10-27T03:40:22.024Z,101377.56
2022-10-27T03:42:48.686Z,101379.16
2022-10-27T03:45:15.456Z,101374.75
2022-10-27T03:47:41.912Z,101377.25
2022-10-27T03:50:08.729Z,101367.69
2022-10-27T03:52:35.188Z,101360.59
2022-10-27T03:55:01.636Z,101351.84
2022-10-27T03:57:28.102Z,101351.84
2022-10-27T03:59:54.549Z,101354.47
2022-10-27T04:02:21.152Z,101341.38
2022-10-27T04:04:48.844Z,101331.75
2022-10-27T04:07:15.450Z,101330.91
2022-10-27T04:09:41.952Z,101325.66
2022-10-27T04:12:08.506Z,101325.66
2022-10-27T04:14:35.064Z,101322.22
2022-10-27T04:17:01.564Z,101313.50
2022-10-27T04:19:28.026Z,101304.00
2022-10-27T04:21:54.518Z,101305.88
2022-10-27T04:24:21.000Z,101313.72
2022-10-27T04:26:47.505Z,101312.88
2022-10-27T04:29:13.960Z,101306.94
2022-10-27T04:31:40.421Z,101306.94
2022-10-27T04:34:06.989Z,101306.03
2022-10-27T04:36:33.578Z,101309.50
2022-10-27T04:39:00.095Z,101306.03
2022-10-27T04:41:26.580Z,101315.50
2022-10-27T04:43:53.104Z,101313.78
2022-10-27T04:46:19.583Z,101308.47
2022-10-27T04:48:46.161Z,101302.41
2022-10-27T04:51:12.708Z,101306.84
2022-10-27T04:53:39.225Z,101306.03
2022-10-27T04:56:06.054Z,101297.31
2022-10-27T04:58:32.542Z,101300.91
2022-10-27T05:00:59.070Z,101280.03
2022-10-27T05:03:25.553Z,101291.38
2022-10-27T05:05:51.992Z,101287.91
2022-10-27T05:08:18.471Z,101279.19
2022-10-27T05:10:46.558Z,101279.19
2022-10-27T05:13:13.018Z,101270.34
2022-10-27T05:15:39.581Z,101277.22
2022-10-27T05:18:08.131Z,101273.59
2022-10-27T05:20:37.089Z,101269.94
2022-10-27T05:23:03.703Z,101258.53
2022-10-27T05:25:30.350Z,101244.50
2022-10-27T05:28:07.864Z,101243.41
2022-10-27T05:30:34.397Z,101232.78
2022-10-27T05:33:01.204Z,101229.19
2022-10-27T05:35:27.805Z,101209.84
2022-10-27T05:37:54.532Z,101221.06
2022-10-27T05:40:21.620Z,101213.19
2022-10-27T05:42:53.527Z,101230.41
2022-10-27T05:45:22.340Z,101246.06
2022-10-27T05:47:49.544Z,101247.69
2022-10-27T05:50:16.172Z,101241.47
2022-10-27T05:52:45.901Z,101247.41
2022-10-27T05:55:12.365Z,101255.09
2022-10-27T05:57:38.867Z,101253.31
2022-10-27T06:00:05.928Z,101247.06
2022-10-27T06:02:32.518Z,101248.78
2022-10-27T06:04:59.074Z,101259.19
2022-10-27T06:07:25.567Z,101261.69
2022-10-27T06:09:52.053Z,101268.66
2022-10-27T06:12:19.103Z,101292.19
2022-10-27T06:14:45.701Z,101293.88
2022-10-27T06:17:12.227Z,101287.72
2022-10-27T06:19:38.746Z,101286.78
2022-10-27T06:22:05.323Z,101294.59
2022-10-27T06:24:31.941Z,101293.63
2022-10-27T06:26:58.474Z,101297.09
2022-10-27T06:29:24.926Z,101288.38
2022-10-27T06:31:51.409Z,101281.34
2022-10-27T06:34:17.890Z,101268.13
2022-10-27T06:36:44.354Z,101258.56
2022-10-27T06:39:10.855Z,101246.19
2022-10-27T06:41:37.314Z,101242.53
2022-10-27T06:44:03.860Z,101247.59
2022-10-27T06:46:30.422Z,101231.66
2022-10-27T06:48:56.913Z,101209.81
2022-10-27T06:51:23.578Z,101187.78
2022-10-27T06:53:50.061Z,101196.34
2022-10-27T06:56:18.027Z,101183.88
2022-10-27T06:58:44.844Z,101177.75
2022-10-27T07:01:11.526Z,101174.94
2022-10-27T07:03:38.135Z,101197.75
2022-10-27T07:06:05.393Z,101197.56
2022-10-27T07:08:31.940Z,101176.44
2022-10-27T07:10:58.584Z,101179.94
2022-10-27T07:13:25.105Z,101170.28
2022-10-27T07:15:51.570Z,101176.44
2022-10-27T07:18:18.201Z,101182.53
2022-10-27T07:20:49.556Z,101186.03
2022-10-27T07:23:16.090Z,101185.16
2022-10-27T07:25:42.665Z,101183.31
2022-10-27T07:28:09.447Z,101181.59
2022-10-27T07:30:39.250Z,101175.44
2022-10-27T07:33:06.589Z,101198.22
2022-10-27T07:35:33.778Z,101201.69
2022-10-27T07:38:00.374Z,101186.84
2022-10-27T07:40:30.117Z,101177.22
2022-10-27T07:43:05.067Z,101183.41
2022-10-27T07:45:33.761Z,101198.28
2022-10-27T07:48:00.225Z,101185.16
2022-10-27T07:50:34.006Z,101186.94
2022-10-27T07:53:01.375Z,101192.09
2022-10-27T07:55:30.103Z,101192.91
2022-10-27T07:58:01.711Z,101198.75
2022-10-27T08:00:29.285Z,101204.69
2022-10-27T08:02:56.090Z,101208.81
2022-10-27T08:05:22.771Z,101206.06
2022-10-27T08:07:49.510Z,101201.47
2022-10-27T08:10:16.185Z,101199.59
2022-10-27T08:12:44.542Z,101211.59
2022-10-27T08:15:12.131Z,101214.94
2022-10-27T08:17:40.066Z,101214.84
2022-10-27T08:20:08.291Z,101218.25
2022-10-27T08:22:34.998Z,101222.56
2022-10-27T08:25:03.647Z,101233.00
2022-10-27T08:27:33.068Z,101231.16
2022-10-27T08:29:59.739Z,101236.34
2022-10-27T08:32:26.248Z,101232.78
2022-10-27T08:34:52.828Z,101219.75
2022-10-27T08:37:19.414Z,101236.16
2022-10-27T08:39:46.042Z,101226.34
2022-10-27T08:42:14.393Z,101221.88
2022-10-27T08:45:02.683Z,101222.63
2022-10-27T08:47:29.256Z,101224.25
2022-10-27T08:50:03.478Z,101226.75
2022-10-27T08:52:49.583Z,101239.88
2022-10-27T08:55:16.224Z,101245.00
2022-10-27T08:57:50.880Z,101245.91
2022-10-27T09:00:17.812Z,101248.53
2022-10-27T09:03:12.188Z,101254.44
2022-10-27T09:05:53.653Z,101249.81
2022-10-27T09:08:31.827Z,101245.19
2022-10-27T09:11:16.815Z,101253.59
2022-10-27T09:14:16.893Z,101256.50
2022-10-27T09:16:51.269Z,101258.28
2022-10-27T09:19:40.083Z,101261.06
2022-10-27T09:22:15.095Z,101254.25
2022-10-27T09:24:41.578Z,101248.41
2022-10-27T09:27:13.533Z,101252.44
2022-10-27T09:29:41.425Z,101241.66
2022-10-27T09:32:08.021Z,101249.97
2022-10-27T09:34:58.367Z,101234.81
2022-10-27T09:37:27.868Z,101253.44
2022-10-27T09:39:54.689Z,101261.78
2022-10-27T09:42:22.075Z,101259.78
2022-10-27T09:44:54.891Z,101258.66
2022-10-27T09:49:56.606Z,101242.84
2022-10-27T09:52:33.175Z,101257.44
2022-10-27T09:54:59.783Z,101260.94
2022-10-27T09:57:32.245Z,101261.78
2022-10-27T10:00:06.481Z,101265.09
2022-10-27T10:02:36.753Z,101253.50
2022-10-27T10:05:19.590Z,101249.28
2022-10-27T10:07:46.956Z,101255.13
2022-10-27T10:10:30.014Z,101259.53
2022-10-27T10:13:03.339Z,101266.25
2022-10-27T10:15:33.232Z,101263.47
2022-10-27T10:18:01.758Z,101265.97
2022-10-27T10:20:43.166Z,101259.13
2022-10-27T10:23:22.530Z,101277.94
2022-10-27T10:25:51.003Z,101281.50
2022-10-27T10:28:25.298Z,101279.66
2022-10-27T10:30:54.546Z,101282.16
2022-10-27T10:33:24.346Z,101284.00
2022-10-27T10:35:52.140Z,101290.69
2022-10-27T10:38:24.680Z,101291.44
2022-10-27T10:41:14.012Z,101294.66
2022-10-27T10:43:40.921Z,101285.78
2022-10-27T10:46:20.872Z,101286.84
2022-10-27T10:48:58.224Z,101294.31
2022-10-27T10:51:31.818Z,101291.22
2022-10-27T10:54:06.193Z,101281.78
2022-10-27T10:56:37.921Z,101278.69
2022-10-27T10:59:15.796Z,101277.91
2022-10-27T11:01:55.652Z,101266.06
2022-10-27T11:04:26.476Z,101271.41
2022-10-27T11:07:15.552Z,101272.66
2022-10-27T11:10:16.145Z,101281.84
2022-10-27T11:12:56.185Z,101266.03
2022-10-27T11:15:43.342Z,101277.88
2022-10-27T11:18:16.988Z,101276.19
2022-10-27T11:20:47.175Z,101281.59
2022-10-27T11:23:41.071Z,101271.28
2022-10-27T11:26:08.920Z,101278.16
2022-10-27T11:28:49.951Z,101280.38
2022-10-27T11:31:46.315Z,101282.09
2022-10-27T11:34:24.526Z,101285.47
2022-10-27T11:37:01.932Z,101280.84
2022-10-27T11:39:31.241Z,101274.75
2022-10-27T11:42:11.348Z,101278.25
2022-10-27T11:44:40.697Z,101292.31
2022-10-27T11:47:07.100Z,101296.66
2022-10-27T11:49:43.988Z,101294.00
2022-10-27T11:52:20.984Z,101305.38
2022-10-27T11:54:48.392Z,101304.19
2022-10-27T11:57:51.471Z,101308.94
2022-10-27T12:00:23.923Z,101309.44
2022-10-27T12:03:06.279Z,101313.63
2022-10-27T12:05:53.301Z,101310.75
2022-10-27T12:11:19.857Z,101318.78
2022-10-27T12:14:12.515Z,101315.47
2022-10-27T12:16:44.979Z,101322.22
2022-10-27T12:19:19.250Z,101310.78
2022-10-27T12:22:09.199Z,101316.38
2022-10-27T12:24:38.129Z,101314.81
2022-10-27T12:27:29.229Z,101317.69
2022-10-27T12:30:07.008Z,101312.41
2022-10-27T12:32:36.814Z,101309.72
2022-10-27T12:35:12.370Z,101309.72
2022-10-27T12:38:03.414Z,101306.47
2022-10-27T12:40:43.603Z,101303.09
2022-10-27T12:43:32.609Z,101300.84
2022-10-27T12:46:19.661Z,101301.22
2022-10-27T12:49:09.953Z,101295.22
2022-10-27T12:51:49.847Z,101297.31
2022-10-27T12:54:33.234Z,101292.16
2022-10-27T12:57:27.842Z,101284.31
2022-10-27T13:00:03.799Z,101282.50
2022-10-27T13:02:38.277Z,101279.09
2022-10-27T13:05:26.763Z,101281.75
2022-10-27T13:08:12.382Z,101269.81
2022-10-27T13:10:47.912Z,101262.81
2022-10-27T13:13:47.510Z,101260.50
2022-10-27T13:16:29.150Z,101265.16
2022-10-27T13:19:10.833Z,101269.69
2022-10-27T13:22:04.035Z,101282.91
2022-10-27T13:25:02.444Z,101279.31
2022-10-27T13:27:33.439Z,101274.88
2022-10-27T13:30:05.326Z,101270.13
2022-10-27T13:32:53.406Z,101273.72
2022-10-27T13:35:20.713Z,101273.41
2022-10-27T13:37:56.315Z,101277.75
2022-10-27T13:40:22.928Z,101268.84
2022-10-27T13:42:54.835Z,101265.59
2022-10-27T13:45:27.433Z,101275.44
2022-10-27T13:48:16.915Z,101271.09
2022-10-27T13:50:46.026Z,101269.41
2022-10-27T13:53:15.426Z,101261.41
2022-10-27T13:55:44.774Z,101265.78
2022-10-27T13:58:20.430Z,101259.66
2022-10-27T14:01:14.770Z,101256.50
2022-10-27T14:03:57.972Z,101268.38
2022-10-27T14:06:37.712Z,101273.16
2022-10-27T14:09:25.497Z,101278.63
2022-10-27T14:11:54.519Z,101273.56
2022-10-27T14:14:29.637Z,101266.81
2022-10-27T14:17:00.093Z,101262.47
2022-10-27T14:19:30.382Z,101267.28
2022-10-27T14:21:57.535Z,101280.31
2022-10-27T14:24:42.990Z,101268.66
2022-10-27T14:27:18.406Z,101264.72
2022-10-27T14:29:44.908Z,101244.06
2022-10-27T14:32:21.485Z,101261.06
2022-10-27T14:34:49.349Z,101264.31
2022-10-27T14:37:20.722Z,101261.25
2022-10-27T14:39:51.444Z,101265.78
2022-10-27T14:42:28.194Z,101274.69
2022-10-27T14:45:12.267Z,101259.84
2022-10-27T14:47:43.568Z,101259.00
2022-10-27T14:50:34.617Z,101255.41
2022-10-27T14:53:03.078Z,101250.97
2022-10-27T14:55:38.451Z,101259.66
2022-10-27T14:58:06.654Z,101245.28
2022-10-27T15:00:37.833Z,101245.97
2022-10-27T15:03:07.424Z,101245.34
2022-10-27T15:05:43.045Z,101252.00
2022-10-27T15:08:21.667Z,101263.81
2022-10-27T15:10:52.011Z,101267.47
2022-10-27T15:13:23.916Z,101273.44
2022-10-27T15:15:53.782Z,101273.69
2022-10-27T15:18:26.144Z,101284.28
2022-10-27T15:20:53.499Z,101279.53
2022-10-27T15:23:21.286Z,101281.41
2022-10-27T15:25:56.735Z,101278.81
2022-10-27T15:28:28.957Z,101287.09
2022-10-27T15:30:55.670Z,101272.88
2022-10-27T15:33:28.261Z,101286.31
2022-10-27T15:35:55.482Z,101283.91
2022-10-27T15:38:29.881Z,101276.50
2022-10-27T15:41:21.817Z,101294.63
2022-10-27T15:43:52.266Z,101295.00
2022-10-27T15:46:35.679Z,101299.03
2022-10-27T15:49:02.104Z,101301.78
2022-10-27T15:51:47.339Z,101293.31
2022-10-27T15:54:32.340Z,101301.81
2022-10-27T15:56:59.739Z,101303.13
2022-10-27T15:59:29.147Z,101311.38
2022-10-27T16:02:01.362Z,101326.03
2022-10-27T16:04:30.800Z,101322.16
2022-10-27T16:07:12.561Z,101334.81
2022-10-27T16:09:42.824Z,101328.06
2022-10-27T16:12:18.459Z,101335.59
2022-10-27T16:14:55.481Z,101338.38
2022-10-27T16:17:26.086Z,101315.16
2022-10-27T16:19:52.694Z,101323.16
2022-10-27T16:22:21.597Z,101324.22
2022-10-27T16:24:48.692Z,101330.72
2022-10-27T16:27:25.162Z,101330.31
2022-10-27T16:30:03.148Z,101329.22
2022-10-27T16:32:30.946Z,101337.16
2022-10-27T16:34:57.866Z,101348.88
2022-10-27T16:37:30.548Z,101350.09
2022-10-27T16:39:57.055Z,101347.81
2022-10-27T16:42:24.987Z,101346.47
2022-10-27T16:44:51.777Z,101343.25
2022-10-27T16:47:20.815Z,101349.53
2022-10-27T16:49:48.137Z,101347.38
2022-10-27T16:52:14.907Z,101358.94
2022-10-27T16:54:41.607Z,101356.56
2022-10-27T16:57:09.673Z,101348.91
2022-10-27T16:59:36.249Z,101351.75
2022-10-27T17:02:03.180Z,101361.59
2022-10-27T17:04:29.897Z,101361.00
2022-10-27T17:06:56.496Z,101363.97
2022-10-27T17:09:23.029Z,101369.59
2022-10-27T17:11:50.637Z,101369.97
2022-10-27T17:14:17.231Z,101375.38
2022-10-27T17:16:43.768Z,101387.06
2022-10-27T17:19:10.322Z,101383.09
2022-10-27T17:21:36.929Z,101376.50
2022-10-27T17:24:03.798Z,101380.19
2022-10-27T17:26:32.333Z,101380.44
2022-10-27T17:28:59.743Z,101380.66
2022-10-27T17:31:27.126Z,101373.22
2022-10-27T17:33:59.504Z,101383.13
2022-10-27T17:36:27.126Z,101384.94
2022-10-27T17:38:53.747Z,101377.34
2022-10-27T17:41:20.912Z,101371.47
2022-10-27T17:43:47.364Z,101365.56
2022-10-27T17:46:16.525Z,101370.13
2022-10-27T17:48:44.575Z,101374.47
2022-10-27T17:51:13.812Z,101382.44
2022-10-27T17:53:41.352Z,101377.19
2022-10-27T17:56:10.553Z,101369.41
2022-10-27T17:58:38.286Z,101373.88
2022-10-27T18:01:06.586Z,101377.50
2022-10-27T18:03:34.114Z,101381.91
2022-10-27T18:06:01.627Z,101377.75
2022-10-27T18:08:29.995Z,101383.13
2022-10-27T18:11:18.229Z,101379.00
2022-10-27T18:13:49.148Z,101373.06
2022-10-27T18:16:24.299Z,101376.69
2022-10-27T18:18:53.209Z,101369.00
2022-10-27T18:21:20.386Z,101370.06
2022-10-27T18:23:52.002Z,101366.69
2022-10-27T18:26:18.748Z,101366.97
2022-10-27T18:28:46.434Z,101373.03
2022-10-27T18:31:14.569Z,101368.78
2022-10-27T18:33:47.181Z,101358.41
2022-10-27T18:36:23.751Z,101370.00
2022-10-27T18:39:00.707Z,101361.34
